sensor_id;sensor_type;location;lat;lon;timestamp;P1;durP1;ratioP1;P2;durP2;ratioP2
21326;SDS011;10822;51.532;6.770;2023-06-26T00:02:04;5.30;;;4.80;;
21326;SDS011;10822;51.532;6.770;2023-06-26T00:04:30;6.10;;;5.22;;
21326;SDS011;10822;51.532;6.770;2023-06-26T00:06:56;7.28;;;5.20;;
21326;SDS011;10822;51.532;6.770;2023-06-26T00:09:22;12.45;;;9.80;;
21326;SDS011;10822;51.532;6.770;2023-06-26T00:11:48;9.73;;;7.90;;
21326;SDS011;10822;51.532;6.770;2023-06-26T00:14:13;8.60;;;6.85;;
21326;SDS011;10822;51.532;6.770;2023-06-26T00:16:39;8.07;;;6.00;;
21326;SDS011;10822;51.532;6.770;2023-06-26T00:19:07;9.77;;;7.38;;
21326;SDS011;10822;51.532;6.770;2023-06-26T00:21:33;9.60;;;7.28;;
21326;SDS011;10822;51.532;6.770;2023-06-26T00:23:59;8.00;;;6.18;;
21326;SDS011;10822;51.532;6.770;2023-06-26T00:26:25;6.93;;;5.63;;
21326;SDS011;10822;51.532;6.770;2023-06-26T00:28:51;7.40;;;5.78;;
21326;SDS011;10822;51.532;6.770;2023-06-26T00:31:17;6.95;;;5.68;;
21326;SDS011;10822;51.532;6.770;2023-06-26T00:33:43;8.70;;;4.85;;
21326;SDS011;10822;51.532;6.770;2023-06-26T00:36:09;7.72;;;5.13;;
21326;SDS011;10822;51.532;6.770;2023-06-26T00:38:35;6.72;;;5.45;;
21326;SDS011;10822;51.532;6.770;2023-06-26T00:41:01;5.15;;;4.65;;
21326;SDS011;10822;51.532;6.770;2023-06-26T00:43:27;5.60;;;5.00;;
21326;SDS011;10822;51.532;6.770;2023-06-26T00:45:53;6.03;;;5.20;;
21326;SDS011;10822;51.532;6.770;2023-06-26T00:48:19;10.90;;;5.38;;
21326;SDS011;10822;51.532;6.770;2023-06-26T00:50:45;6.10;;;5.40;;
21326;SDS011;10822;51.532;6.770;2023-06-26T00:53:11;7.35;;;5.63;;
21326;SDS011;10822;51.532;6.770;2023-06-26T00:55:37;6.22;;;4.95;;
21326;SDS011;10822;51.532;6.770;2023-06-26T00:58:03;5.68;;;5.10;;
21326;SDS011;10822;51.532;6.770;2023-06-26T01:00:29;5.63;;;5.05;;
21326;SDS011;10822;51.532;6.770;2023-06-26T01:02:55;7.18;;;5.60;;
21326;SDS011;10822;51.532;6.770;2023-06-26T01:05:24;7.05;;;5.28;;
21326;SDS011;10822;51.532;6.770;2023-06-26T01:07:49;6.80;;;5.72;;
21326;SDS011;10822;51.532;6.770;2023-06-26T01:10:16;8.38;;;5.53;;
21326;SDS011;10822;51.532;6.770;2023-06-26T01:12:42;6.63;;;5.72;;
21326;SDS011;10822;51.532;6.770;2023-06-26T01:15:09;6.82;;;5.45;;
21326;SDS011;10822;51.532;6.770;2023-06-26T01:17:36;5.88;;;5.28;;
21326;SDS011;10822;51.532;6.770;2023-06-26T01:20:03;8.02;;;5.97;;
21326;SDS011;10822;51.532;6.770;2023-06-26T01:22:43;7.95;;;5.90;;
21326;SDS011;10822;51.532;6.770;2023-06-26T01:25:12;8.93;;;5.90;;
21326;SDS011;10822;51.532;6.770;2023-06-26T01:27:43;6.38;;;5.22;;
21326;SDS011;10822;51.532;6.770;2023-06-26T01:30:10;6.65;;;5.50;;
21326;SDS011;10822;51.532;6.770;2023-06-26T01:32:36;8.02;;;5.82;;
21326;SDS011;10822;51.532;6.770;2023-06-26T01:35:04;7.30;;;5.85;;
21326;SDS011;10822;51.532;6.770;2023-06-26T01:37:31;6.93;;;5.53;;
21326;SDS011;10822;51.532;6.770;2023-06-26T01:39:56;6.32;;;5.25;;
21326;SDS011;10822;51.532;6.770;2023-06-26T01:42:22;8.38;;;5.80;;
21326;SDS011;10822;51.532;6.770;2023-06-26T01:44:48;8.57;;;6.10;;
21326;SDS011;10822;51.532;6.770;2023-06-26T01:47:19;7.13;;;5.50;;
21326;SDS011;10822;51.532;6.770;2023-06-26T01:49:49;6.38;;;5.45;;
21326;SDS011;10822;51.532;6.770;2023-06-26T01:52:29;7.50;;;5.78;;
21326;SDS011;10822;51.532;6.770;2023-06-26T01:54:58;7.50;;;5.63;;
21326;SDS011;10822;51.532;6.770;2023-06-26T01:57:27;8.10;;;5.40;;
21326;SDS011;10822;51.532;6.770;2023-06-26T01:59:53;8.07;;;5.60;;
21326;SDS011;10822;51.532;6.770;2023-06-26T02:02:22;6.97;;;5.72;;
21326;SDS011;10822;51.532;6.770;2023-06-26T02:04:48;6.32;;;5.50;;
21326;SDS011;10822;51.532;6.770;2023-06-26T02:07:14;7.25;;;5.80;;
21326;SDS011;10822;51.532;6.770;2023-06-26T02:09:40;6.43;;;5.32;;
21326;SDS011;10822;51.532;6.770;2023-06-26T02:12:07;5.75;;;5.00;;
21326;SDS011;10822;51.532;6.770;2023-06-26T02:14:33;6.55;;;5.50;;
21326;SDS011;10822;51.532;6.770;2023-06-26T02:16:59;9.27;;;5.93;;
21326;SDS011;10822;51.532;6.770;2023-06-26T02:19:25;7.82;;;5.55;;
21326;SDS011;10822;51.532;6.770;2023-06-26T02:21:52;6.63;;;5.53;;
21326;SDS011;10822;51.532;6.770;2023-06-26T02:24:18;6.95;;;5.80;;
21326;SDS011;10822;51.532;6.770;2023-06-26T02:26:44;7.93;;;5.63;;
21326;SDS011;10822;51.532;6.770;2023-06-26T02:29:11;7.65;;;5.75;;
21326;SDS011;10822;51.532;6.770;2023-06-26T02:31:37;6.68;;;5.63;;
21326;SDS011;10822;51.532;6.770;2023-06-26T02:34:03;10.60;;;6.25;;
21326;SDS011;10822;51.532;6.770;2023-06-26T02:36:29;9.30;;;6.38;;
21326;SDS011;10822;51.532;6.770;2023-06-26T02:38:55;6.75;;;5.53;;
21326;SDS011;10822;51.532;6.770;2023-06-26T02:41:21;11.85;;;6.20;;
21326;SDS011;10822;51.532;6.770;2023-06-26T02:43:47;7.75;;;6.20;;
21326;SDS011;10822;51.532;6.770;2023-06-26T02:46:13;7.95;;;6.45;;
21326;SDS011;10822;51.532;6.770;2023-06-26T02:48:39;9.45;;;6.82;;
21326;SDS011;10822;51.532;6.770;2023-06-26T02:51:05;8.82;;;6.45;;
21326;SDS011;10822;51.532;6.770;2023-06-26T02:53:31;10.32;;;6.75;;
21326;SDS011;10822;51.532;6.770;2023-06-26T02:55:57;11.73;;;7.07;;
21326;SDS011;10822;51.532;6.770;2023-06-26T02:58:23;10.65;;;7.00;;
21326;SDS011;10822;51.532;6.770;2023-06-26T03:00:49;13.35;;;6.45;;
21326;SDS011;10822;51.532;6.770;2023-06-26T03:03:15;11.95;;;6.20;;
21326;SDS011;10822;51.532;6.770;2023-06-26T03:05:41;10.13;;;6.40;;
21326;SDS011;10822;51.532;6.770;2023-06-26T03:08:07;10.52;;;5.57;;
21326;SDS011;10822;51.532;6.770;2023-06-26T03:10:33;8.65;;;5.85;;
21326;SDS011;10822;51.532;6.770;2023-06-26T03:12:59;9.57;;;5.47;;
21326;SDS011;10822;51.532;6.770;2023-06-26T03:15:25;7.35;;;5.57;;
21326;SDS011;10822;51.532;6.770;2023-06-26T03:17:51;9.52;;;5.70;;
21326;SDS011;10822;51.532;6.770;2023-06-26T03:20:17;7.63;;;5.63;;
21326;SDS011;10822;51.532;6.770;2023-06-26T03:22:43;7.07;;;5.85;;
21326;SDS011;10822;51.532;6.770;2023-06-26T03:25:09;6.15;;;5.50;;
21326;SDS011;10822;51.532;6.770;2023-06-26T03:27:35;6.85;;;5.30;;
21326;SDS011;10822;51.532;6.770;2023-06-26T03:30:01;7.50;;;5.70;;
21326;SDS011;10822;51.532;6.770;2023-06-26T03:32:27;8.35;;;5.90;;
21326;SDS011;10822;51.532;6.770;2023-06-26T03:34:53;8.25;;;5.53;;
21326;SDS011;10822;51.532;6.770;2023-06-26T03:37:19;7.68;;;6.30;;
21326;SDS011;10822;51.532;6.770;2023-06-26T03:39:45;7.00;;;5.13;;
21326;SDS011;10822;51.532;6.770;2023-06-26T03:42:11;8.43;;;6.28;;
21326;SDS011;10822;51.532;6.770;2023-06-26T03:44:37;6.07;;;5.28;;
21326;SDS011;10822;51.532;6.770;2023-06-26T03:47:03;7.15;;;5.50;;
21326;SDS011;10822;51.532;6.770;2023-06-26T03:49:29;7.18;;;5.47;;
21326;SDS011;10822;51.532;6.770;2023-06-26T03:51:55;8.10;;;5.57;;
21326;SDS011;10822;51.532;6.770;2023-06-26T03:54:21;6.18;;;5.40;;
21326;SDS011;10822;51.532;6.770;2023-06-26T03:56:47;7.88;;;5.50;;
21326;SDS011;10822;51.532;6.770;2023-06-26T03:59:13;7.47;;;5.55;;
21326;SDS011;10822;51.532;6.770;2023-06-26T04:01:39;6.95;;;5.15;;
21326;SDS011;10822;51.532;6.770;2023-06-26T04:04:05;6.55;;;5.20;;
21326;SDS011;10822;51.532;6.770;2023-06-26T04:06:31;6.32;;;5.07;;
21326;SDS011;10822;51.532;6.770;2023-06-26T04:08:57;6.80;;;5.03;;
21326;SDS011;10822;51.532;6.770;2023-06-26T04:11:23;6.03;;;4.75;;
21326;SDS011;10822;51.532;6.770;2023-06-26T04:13:49;7.03;;;4.88;;
21326;SDS011;10822;51.532;6.770;2023-06-26T04:16:15;5.40;;;4.53;;
21326;SDS011;10822;51.532;6.770;2023-06-26T04:18:41;7.90;;;5.20;;
21326;SDS011;10822;51.532;6.770;2023-06-26T04:21:08;7.13;;;4.75;;
21326;SDS011;10822;51.532;6.770;2023-06-26T04:23:34;6.28;;;4.32;;
21326;SDS011;10822;51.532;6.770;2023-06-26T04:26:00;5.75;;;4.13;;
21326;SDS011;10822;51.532;6.770;2023-06-26T04:28:27;6.95;;;4.75;;
21326;SDS011;10822;51.532;6.770;2023-06-26T04:30:53;6.07;;;4.10;;
21326;SDS011;10822;51.532;6.770;2023-06-26T04:33:19;6.95;;;4.70;;
21326;SDS011;10822;51.532;6.770;2023-06-26T04:35:45;5.25;;;4.13;;
21326;SDS011;10822;51.532;6.770;2023-06-26T04:38:14;9.65;;;4.85;;
21326;SDS011;10822;51.532;6.770;2023-06-26T04:40:40;7.03;;;4.50;;
21326;SDS011;10822;51.532;6.770;2023-06-26T04:43:06;7.00;;;4.75;;
21326;SDS011;10822;51.532;6.770;2023-06-26T04:45:32;6.53;;;4.70;;
21326;SDS011;10822;51.532;6.770;2023-06-26T04:47:58;5.32;;;4.68;;
21326;SDS011;10822;51.532;6.770;2023-06-26T04:50:25;8.77;;;5.47;;
21326;SDS011;10822;51.532;6.770;2023-06-26T04:52:53;5.82;;;4.63;;
21326;SDS011;10822;51.532;6.770;2023-06-26T04:55:19;5.10;;;4.57;;
21326;SDS011;10822;51.532;6.770;2023-06-26T04:57:46;6.63;;;4.47;;
21326;SDS011;10822;51.532;6.770;2023-06-26T05:00:12;5.82;;;4.80;;
21326;SDS011;10822;51.532;6.770;2023-06-26T05:02:38;6.40;;;4.80;;
21326;SDS011;10822;51.532;6.770;2023-06-26T05:05:04;6.13;;;4.18;;
21326;SDS011;10822;51.532;6.770;2023-06-26T05:07:30;6.32;;;4.20;;
21326;SDS011;10822;51.532;6.770;2023-06-26T05:09:56;6.53;;;4.20;;
21326;SDS011;10822;51.532;6.770;2023-06-26T05:12:22;6.82;;;3.80;;
21326;SDS011;10822;51.532;6.770;2023-06-26T05:14:48;5.50;;;3.53;;
21326;SDS011;10822;51.532;6.770;2023-06-26T05:17:14;6.07;;;3.67;;
21326;SDS011;10822;51.532;6.770;2023-06-26T05:19:40;5.85;;;4.28;;
21326;SDS011;10822;51.532;6.770;2023-06-26T05:22:06;6.72;;;4.10;;
21326;SDS011;10822;51.532;6.770;2023-06-26T05:24:36;7.22;;;4.30;;
21326;SDS011;10822;51.532;6.770;2023-06-26T05:27:02;5.80;;;4.07;;
21326;SDS011;10822;51.532;6.770;2023-06-26T05:29:29;7.15;;;4.15;;
21326;SDS011;10822;51.532;6.770;2023-06-26T05:31:55;7.43;;;4.07;;
21326;SDS011;10822;51.532;6.770;2023-06-26T05:34:22;6.75;;;3.92;;
21326;SDS011;10822;51.532;6.770;2023-06-26T05:36:50;8.68;;;4.10;;
21326;SDS011;10822;51.532;6.770;2023-06-26T05:39:16;4.18;;;3.38;;
21326;SDS011;10822;51.532;6.770;2023-06-26T05:41:45;6.43;;;3.92;;
21326;SDS011;10822;51.532;6.770;2023-06-26T05:44:11;6.57;;;4.57;;
21326;SDS011;10822;51.532;6.770;2023-06-26T05:46:37;6.32;;;4.05;;
21326;SDS011;10822;51.532;6.770;2023-06-26T05:49:03;6.75;;;4.25;;
21326;SDS011;10822;51.532;6.770;2023-06-26T05:51:29;5.95;;;4.00;;
21326;SDS011;10822;51.532;6.770;2023-06-26T05:53:55;7.03;;;4.15;;
21326;SDS011;10822;51.532;6.770;2023-06-26T05:56:22;5.80;;;4.00;;
21326;SDS011;10822;51.532;6.770;2023-06-26T05:58:48;7.75;;;4.50;;
21326;SDS011;10822;51.532;6.770;2023-06-26T06:01:14;7.85;;;4.20;;
21326;SDS011;10822;51.532;6.770;2023-06-26T06:03:40;7.22;;;4.22;;
21326;SDS011;10822;51.532;6.770;2023-06-26T06:06:06;7.13;;;4.05;;
21326;SDS011;10822;51.532;6.770;2023-06-26T06:08:32;8.48;;;4.38;;
21326;SDS011;10822;51.532;6.770;2023-06-26T06:10:59;9.43;;;4.20;;
21326;SDS011;10822;51.532;6.770;2023-06-26T06:13:26;9.23;;;4.35;;
21326;SDS011;10822;51.532;6.770;2023-06-26T06:15:52;7.32;;;4.20;;
21326;SDS011;10822;51.532;6.770;2023-06-26T06:18:18;7.07;;;3.90;;
21326;SDS011;10822;51.532;6.770;2023-06-26T06:20:44;10.43;;;4.28;;
21326;SDS011;10822;51.532;6.770;2023-06-26T06:23:10;9.38;;;4.10;;
21326;SDS011;10822;51.532;6.770;2023-06-26T06:25:36;6.93;;;4.05;;
21326;SDS011;10822;51.532;6.770;2023-06-26T06:28:02;6.78;;;4.40;;
21326;SDS011;10822;51.532;6.770;2023-06-26T06:30:28;8.55;;;4.47;;
21326;SDS011;10822;51.532;6.770;2023-06-26T06:32:54;7.90;;;3.95;;
21326;SDS011;10822;51.532;6.770;2023-06-26T06:35:20;8.88;;;4.90;;
21326;SDS011;10822;51.532;6.770;2023-06-26T06:37:46;8.38;;;4.25;;
21326;SDS011;10822;51.532;6.770;2023-06-26T06:40:12;7.70;;;3.65;;
21326;SDS011;10822;51.532;6.770;2023-06-26T06:42:38;7.95;;;4.45;;
21326;SDS011;10822;51.532;6.770;2023-06-26T06:45:04;9.23;;;4.20;;
21326;SDS011;10822;51.532;6.770;2023-06-26T06:47:33;8.77;;;4.43;;
21326;SDS011;10822;51.532;6.770;2023-06-26T06:50:00;8.23;;;4.05;;
21326;SDS011;10822;51.532;6.770;2023-06-26T06:52:36;7.18;;;4.18;;
21326;SDS011;10822;51.532;6.770;2023-06-26T06:55:02;9.68;;;4.00;;
21326;SDS011;10822;51.532;6.770;2023-06-26T06:57:31;6.25;;;4.15;;
21326;SDS011;10822;51.532;6.770;2023-06-26T07:00:01;8.50;;;4.63;;
21326;SDS011;10822;51.532;6.770;2023-06-26T07:02:27;10.23;;;4.50;;
21326;SDS011;10822;51.532;6.770;2023-06-26T07:04:53;9.05;;;4.30;;
21326;SDS011;10822;51.532;6.770;2023-06-26T07:07:19;10.88;;;4.32;;
21326;SDS011;10822;51.532;6.770;2023-06-26T07:09:45;6.72;;;4.20;;
21326;SDS011;10822;51.532;6.770;2023-06-26T07:12:11;7.68;;;4.22;;
21326;SDS011;10822;51.532;6.770;2023-06-26T07:14:38;10.40;;;4.97;;
21326;SDS011;10822;51.532;6.770;2023-06-26T07:17:04;12.98;;;5.18;;
21326;SDS011;10822;51.532;6.770;2023-06-26T07:19:30;8.35;;;4.00;;
21326;SDS011;10822;51.532;6.770;2023-06-26T07:21:56;9.15;;;4.25;;
21326;SDS011;10822;51.532;6.770;2023-06-26T07:24:22;9.20;;;4.63;;
21326;SDS011;10822;51.532;6.770;2023-06-26T07:26:48;9.55;;;5.07;;
21326;SDS011;10822;51.532;6.770;2023-06-26T07:29:14;10.35;;;4.68;;
21326;SDS011;10822;51.532;6.770;2023-06-26T07:31:40;8.57;;;4.22;;
21326;SDS011;10822;51.532;6.770;2023-06-26T07:34:06;7.03;;;4.10;;
21326;SDS011;10822;51.532;6.770;2023-06-26T07:36:32;6.78;;;4.07;;
21326;SDS011;10822;51.532;6.770;2023-06-26T07:38:58;8.80;;;4.00;;
21326;SDS011;10822;51.532;6.770;2023-06-26T07:41:24;9.68;;;4.13;;
21326;SDS011;10822;51.532;6.770;2023-06-26T07:43:50;9.15;;;4.25;;
21326;SDS011;10822;51.532;6.770;2023-06-26T07:46:16;9.50;;;4.13;;
21326;SDS011;10822;51.532;6.770;2023-06-26T07:48:42;8.75;;;3.60;;
21326;SDS011;10822;51.532;6.770;2023-06-26T07:51:08;7.22;;;3.53;;
21326;SDS011;10822;51.532;6.770;2023-06-26T07:53:33;7.15;;;3.78;;
21326;SDS011;10822;51.532;6.770;2023-06-26T07:55:59;9.15;;;4.07;;
21326;SDS011;10822;51.532;6.770;2023-06-26T07:58:25;8.60;;;3.88;;
21326;SDS011;10822;51.532;6.770;2023-06-26T08:00:51;7.55;;;3.90;;
21326;SDS011;10822;51.532;6.770;2023-06-26T08:03:17;8.80;;;3.83;;
21326;SDS011;10822;51.532;6.770;2023-06-26T08:05:43;8.93;;;4.20;;
21326;SDS011;10822;51.532;6.770;2023-06-26T08:08:09;7.05;;;3.47;;
21326;SDS011;10822;51.532;6.770;2023-06-26T08:10:35;10.20;;;3.35;;
21326;SDS011;10822;51.532;6.770;2023-06-26T08:13:01;7.85;;;3.95;;
21326;SDS011;10822;51.532;6.770;2023-06-26T08:15:27;9.32;;;3.47;;
21326;SDS011;10822;51.532;6.770;2023-06-26T08:17:53;8.88;;;3.25;;
21326;SDS011;10822;51.532;6.770;2023-06-26T08:20:19;7.47;;;3.20;;
21326;SDS011;10822;51.532;6.770;2023-06-26T08:22:45;6.82;;;3.15;;
21326;SDS011;10822;51.532;6.770;2023-06-26T08:25:13;5.85;;;3.15;;
21326;SDS011;10822;51.532;6.770;2023-06-26T08:27:39;9.07;;;3.72;;
21326;SDS011;10822;51.532;6.770;2023-06-26T08:30:05;10.00;;;3.20;;
21326;SDS011;10822;51.532;6.770;2023-06-26T08:32:31;7.97;;;3.60;;
21326;SDS011;10822;51.532;6.770;2023-06-26T08:34:57;7.43;;;3.17;;
21326;SDS011;10822;51.532;6.770;2023-06-26T08:37:23;7.68;;;3.47;;
21326;SDS011;10822;51.532;6.770;2023-06-26T08:39:49;7.32;;;3.22;;
21326;SDS011;10822;51.532;6.770;2023-06-26T08:42:15;8.75;;;3.22;;
21326;SDS011;10822;51.532;6.770;2023-06-26T08:44:41;10.18;;;3.70;;
21326;SDS011;10822;51.532;6.770;2023-06-26T08:47:07;10.93;;;3.45;;
21326;SDS011;10822;51.532;6.770;2023-06-26T08:49:45;9.13;;;3.50;;
21326;SDS011;10822;51.532;6.770;2023-06-26T08:52:27;6.28;;;2.83;;
21326;SDS011;10822;51.532;6.770;2023-06-26T08:54:54;5.93;;;3.40;;
21326;SDS011;10822;51.532;6.770;2023-06-26T08:57:23;7.03;;;3.17;;
21326;SDS011;10822;51.532;6.770;2023-06-26T08:59:49;7.57;;;3.55;;
21326;SDS011;10822;51.532;6.770;2023-06-26T09:02:16;6.95;;;3.30;;
21326;SDS011;10822;51.532;6.770;2023-06-26T09:04:42;7.72;;;3.55;;
21326;SDS011;10822;51.532;6.770;2023-06-26T09:07:08;5.57;;;2.80;;
21326;SDS011;10822;51.532;6.770;2023-06-26T09:09:35;7.65;;;3.22;;
21326;SDS011;10822;51.532;6.770;2023-06-26T09:12:01;9.35;;;3.30;;
21326;SDS011;10822;51.532;6.770;2023-06-26T09:14:28;5.85;;;2.72;;
21326;SDS011;10822;51.532;6.770;2023-06-26T09:16:55;6.32;;;3.05;;
21326;SDS011;10822;51.532;6.770;2023-06-26T09:19:21;8.38;;;3.78;;
21326;SDS011;10822;51.532;6.770;2023-06-26T09:21:48;6.53;;;3.03;;
21326;SDS011;10822;51.532;6.770;2023-06-26T09:24:15;10.20;;;3.17;;
21326;SDS011;10822;51.532;6.770;2023-06-26T09:26:42;5.72;;;2.83;;
21326;SDS011;10822;51.532;6.770;2023-06-26T09:29:08;5.82;;;2.75;;
21326;SDS011;10822;51.532;6.770;2023-06-26T09:31:36;9.27;;;3.10;;
21326;SDS011;10822;51.532;6.770;2023-06-26T09:34:03;9.55;;;2.88;;
21326;SDS011;10822;51.532;6.770;2023-06-26T09:36:29;7.03;;;2.78;;
21326;SDS011;10822;51.532;6.770;2023-06-26T09:39:00;6.38;;;2.60;;
21326;SDS011;10822;51.532;6.770;2023-06-26T09:41:26;6.72;;;2.95;;
21326;SDS011;10822;51.532;6.770;2023-06-26T09:43:53;7.80;;;2.90;;
21326;SDS011;10822;51.532;6.770;2023-06-26T09:46:26;5.93;;;2.88;;
21326;SDS011;10822;51.532;6.770;2023-06-26T09:49:06;5.72;;;2.35;;
21326;SDS011;10822;51.532;6.770;2023-06-26T09:51:33;8.05;;;2.90;;
21326;SDS011;10822;51.532;6.770;2023-06-26T09:53:59;7.13;;;3.08;;
21326;SDS011;10822;51.532;6.770;2023-06-26T09:56:25;3.30;;;2.30;;
21326;SDS011;10822;51.532;6.770;2023-06-26T09:58:52;5.10;;;2.50;;
21326;SDS011;10822;51.532;6.770;2023-06-26T10:01:19;8.93;;;2.80;;
21326;SDS011;10822;51.532;6.770;2023-06-26T10:03:45;5.68;;;2.58;;
21326;SDS011;10822;51.532;6.770;2023-06-26T10:06:11;4.05;;;2.40;;
21326;SDS011;10822;51.532;6.770;2023-06-26T10:08:39;4.68;;;2.60;;
21326;SDS011;10822;51.532;6.770;2023-06-26T10:11:07;5.10;;;2.53;;
21326;SDS011;10822;51.532;6.770;2023-06-26T10:13:38;3.95;;;2.55;;
21326;SDS011;10822;51.532;6.770;2023-06-26T10:16:05;5.32;;;2.75;;
21326;SDS011;10822;51.532;6.770;2023-06-26T10:18:33;3.92;;;2.17;;
21326;SDS011;10822;51.532;6.770;2023-06-26T10:20:59;4.47;;;2.63;;
21326;SDS011;10822;51.532;6.770;2023-06-26T10:23:27;5.45;;;2.20;;
21326;SDS011;10822;51.532;6.770;2023-06-26T10:25:53;5.13;;;2.50;;
21326;SDS011;10822;51.532;6.770;2023-06-26T10:28:21;6.32;;;3.17;;
21326;SDS011;10822;51.532;6.770;2023-06-26T10:30:48;5.22;;;2.63;;
21326;SDS011;10822;51.532;6.770;2023-06-26T10:33:15;4.22;;;2.40;;
21326;SDS011;10822;51.532;6.770;2023-06-26T10:35:45;4.07;;;2.30;;
21326;SDS011;10822;51.532;6.770;2023-06-26T10:38:11;5.15;;;2.80;;
21326;SDS011;10822;51.532;6.770;2023-06-26T10:40:47;5.10;;;2.10;;
21326;SDS011;10822;51.532;6.770;2023-06-26T10:43:14;5.00;;;2.25;;
21326;SDS011;10822;51.532;6.770;2023-06-26T10:45:47;4.22;;;2.20;;
21326;SDS011;10822;51.532;6.770;2023-06-26T10:48:19;5.10;;;1.90;;
21326;SDS011;10822;51.532;6.770;2023-06-26T10:50:49;3.88;;;1.90;;
21326;SDS011;10822;51.532;6.770;2023-06-26T10:55:59;4.97;;;1.70;;
21326;SDS011;10822;51.532;6.770;2023-06-26T11:01:22;4.53;;;1.60;;
21326;SDS011;10822;51.532;6.770;2023-06-26T11:03:49;3.08;;;1.38;;
21326;SDS011;10822;51.532;6.770;2023-06-26T11:06:27;3.25;;;1.70;;
21326;SDS011;10822;51.532;6.770;2023-06-26T11:08:54;2.30;;;1.13;;
21326;SDS011;10822;51.532;6.770;2023-06-26T11:11:22;4.28;;;1.40;;
21326;SDS011;10822;51.532;6.770;2023-06-26T11:14:08;3.45;;;2.15;;
21326;SDS011;10822;51.532;6.770;2023-06-26T11:16:35;3.50;;;1.95;;
21326;SDS011;10822;51.532;6.770;2023-06-26T11:19:02;2.58;;;1.40;;
21326;SDS011;10822;51.532;6.770;2023-06-26T11:21:28;4.20;;;1.40;;
21326;SDS011;10822;51.532;6.770;2023-06-26T11:23:54;3.10;;;1.63;;
21326;SDS011;10822;51.532;6.770;2023-06-26T11:26:23;5.13;;;1.40;;
21326;SDS011;10822;51.532;6.770;2023-06-26T11:28:50;2.55;;;1.33;;
21326;SDS011;10822;51.532;6.770;2023-06-26T11:31:29;1.77;;;1.13;;
21326;SDS011;10822;51.532;6.770;2023-06-26T11:33:55;1.40;;;1.00;;
21326;SDS011;10822;51.532;6.770;2023-06-26T11:36:25;1.73;;;1.10;;
21326;SDS011;10822;51.532;6.770;2023-06-26T11:38:57;4.40;;;1.23;;
21326;SDS011;10822;51.532;6.770;2023-06-26T11:41:27;2.95;;;1.10;;
21326;SDS011;10822;51.532;6.770;2023-06-26T11:43:54;2.03;;;1.00;;
21326;SDS011;10822;51.532;6.770;2023-06-26T11:46:20;2.58;;;1.02;;
21326;SDS011;10822;51.532;6.770;2023-06-26T11:48:47;3.05;;;1.05;;
21326;SDS011;10822;51.532;6.770;2023-06-26T11:51:14;1.98;;;0.90;;
21326;SDS011;10822;51.532;6.770;2023-06-26T11:53:40;5.65;;;1.10;;
21326;SDS011;10822;51.532;6.770;2023-06-26T11:56:07;3.72;;;0.90;;
21326;SDS011;10822;51.532;6.770;2023-06-26T11:58:34;2.22;;;0.80;;
21326;SDS011;10822;51.532;6.770;2023-06-26T12:01:00;1.77;;;0.70;;
21326;SDS011;10822;51.532;6.770;2023-06-26T12:03:25;1.73;;;0.85;;
21326;SDS011;10822;51.532;6.770;2023-06-26T12:05:52;1.83;;;0.70;;
21326;SDS011;10822;51.532;6.770;2023-06-26T12:08:18;1.25;;;0.70;;
21326;SDS011;10822;51.532;6.770;2023-06-26T12:10:44;3.13;;;0.80;;
21326;SDS011;10822;51.532;6.770;2023-06-26T12:13:11;1.33;;;0.82;;
21326;SDS011;10822;51.532;6.770;2023-06-26T12:15:36;3.90;;;1.00;;
21326;SDS011;10822;51.532;6.770;2023-06-26T12:18:09;3.38;;;0.80;;
21326;SDS011;10822;51.532;6.770;2023-06-26T12:20:39;2.13;;;0.70;;
21326;SDS011;10822;51.532;6.770;2023-06-26T12:23:11;1.75;;;0.93;;
21326;SDS011;10822;51.532;6.770;2023-06-26T12:25:37;1.58;;;0.90;;
21326;SDS011;10822;51.532;6.770;2023-06-26T12:28:03;2.70;;;1.10;;
21326;SDS011;10822;51.532;6.770;2023-06-26T12:30:29;2.38;;;0.82;;
21326;SDS011;10822;51.532;6.770;2023-06-26T12:32:55;1.77;;;0.80;;
21326;SDS011;10822;51.532;6.770;2023-06-26T12:35:21;3.35;;;1.00;;
21326;SDS011;10822;51.532;6.770;2023-06-26T12:37:47;2.78;;;1.00;;
21326;SDS011;10822;51.532;6.770;2023-06-26T12:40:20;1.65;;;0.70;;
21326;SDS011;10822;51.532;6.770;2023-06-26T12:42:48;2.08;;;0.88;;
21326;SDS011;10822;51.532;6.770;2023-06-26T12:45:14;2.42;;;1.27;;
21326;SDS011;10822;51.532;6.770;2023-06-26T12:47:41;4.22;;;0.80;;
21326;SDS011;10822;51.532;6.770;2023-06-26T12:50:07;1.63;;;0.90;;
21326;SDS011;10822;51.532;6.770;2023-06-26T12:52:33;2.35;;;0.85;;
21326;SDS011;10822;51.532;6.770;2023-06-26T12:54:59;2.00;;;0.75;;
21326;SDS011;10822;51.532;6.770;2023-06-26T12:57:25;3.20;;;0.98;;
21326;SDS011;10822;51.532;6.770;2023-06-26T12:59:51;2.17;;;1.00;;
21326;SDS011;10822;51.532;6.770;2023-06-26T13:02:17;2.47;;;0.60;;
21326;SDS011;10822;51.532;6.770;2023-06-26T13:04:43;1.77;;;0.90;;
21326;SDS011;10822;51.532;6.770;2023-06-26T13:07:10;3.45;;;0.80;;
21326;SDS011;10822;51.532;6.770;2023-06-26T13:09:36;2.47;;;1.10;;
21326;SDS011;10822;51.532;6.770;2023-06-26T13:12:03;2.92;;;0.80;;
21326;SDS011;10822;51.532;6.770;2023-06-26T13:14:30;1.98;;;0.93;;
21326;SDS011;10822;51.532;6.770;2023-06-26T13:16:56;2.28;;;0.90;;
21326;SDS011;10822;51.532;6.770;2023-06-26T13:19:22;2.22;;;1.05;;
21326;SDS011;10822;51.532;6.770;2023-06-26T13:21:48;1.40;;;0.88;;
21326;SDS011;10822;51.532;6.770;2023-06-26T13:24:14;1.75;;;0.80;;
21326;SDS011;10822;51.532;6.770;2023-06-26T13:26:40;2.30;;;1.00;;
21326;SDS011;10822;51.532;6.770;2023-06-26T13:29:06;5.30;;;1.00;;
21326;SDS011;10822;51.532;6.770;2023-06-26T13:31:32;2.63;;;0.85;;
21326;SDS011;10822;51.532;6.770;2023-06-26T13:33:58;1.15;;;0.80;;
21326;SDS011;10822;51.532;6.770;2023-06-26T13:36:25;1.00;;;0.90;;
21326;SDS011;10822;51.532;6.770;2023-06-26T13:38:51;1.92;;;0.90;;
21326;SDS011;10822;51.532;6.770;2023-06-26T13:41:23;1.95;;;0.77;;
21326;SDS011;10822;51.532;6.770;2023-06-26T13:43:49;1.77;;;0.80;;
21326;SDS011;10822;51.532;6.770;2023-06-26T13:46:15;2.08;;;0.90;;
21326;SDS011;10822;51.532;6.770;2023-06-26T13:48:42;1.52;;;0.68;;
21326;SDS011;10822;51.532;6.770;2023-06-26T13:51:08;1.92;;;0.73;;
21326;SDS011;10822;51.532;6.770;2023-06-26T13:53:34;1.58;;;1.00;;
21326;SDS011;10822;51.532;6.770;2023-06-26T13:56:00;1.88;;;0.80;;
21326;SDS011;10822;51.532;6.770;2023-06-26T13:58:26;1.50;;;0.80;;
21326;SDS011;10822;51.532;6.770;2023-06-26T14:00:54;2.75;;;0.80;;
21326;SDS011;10822;51.532;6.770;2023-06-26T14:03:20;2.97;;;0.88;;
21326;SDS011;10822;51.532;6.770;2023-06-26T14:05:46;2.00;;;0.80;;
21326;SDS011;10822;51.532;6.770;2023-06-26T14:08:13;3.47;;;1.00;;
21326;SDS011;10822;51.532;6.770;2023-06-26T14:10:39;3.45;;;0.70;;
21326;SDS011;10822;51.532;6.770;2023-06-26T14:13:05;4.43;;;1.10;;
21326;SDS011;10822;51.532;6.770;2023-06-26T14:15:32;1.98;;;0.70;;
21326;SDS011;10822;51.532;6.770;2023-06-26T14:17:58;1.55;;;0.95;;
21326;SDS011;10822;51.532;6.770;2023-06-26T14:20:25;3.85;;;1.00;;
21326;SDS011;10822;51.532;6.770;2023-06-26T14:22:52;1.08;;;0.90;;
21326;SDS011;10822;51.532;6.770;2023-06-26T14:25:18;1.90;;;1.00;;
21326;SDS011;10822;51.532;6.770;2023-06-26T14:27:44;1.77;;;1.20;;
21326;SDS011;10822;51.532;6.770;2023-06-26T14:30:10;1.77;;;0.93;;
21326;SDS011;10822;51.532;6.770;2023-06-26T14:32:36;1.75;;;0.90;;
21326;SDS011;10822;51.532;6.770;2023-06-26T14:35:02;2.30;;;1.45;;
21326;SDS011;10822;51.532;6.770;2023-06-26T14:37:29;2.40;;;1.00;;
21326;SDS011;10822;51.532;6.770;2023-06-26T14:39:55;1.27;;;0.80;;
21326;SDS011;10822;51.532;6.770;2023-06-26T14:42:21;2.25;;;1.13;;
21326;SDS011;10822;51.532;6.770;2023-06-26T14:44:47;2.35;;;1.25;;
21326;SDS011;10822;51.532;6.770;2023-06-26T14:47:15;4.28;;;1.05;;
21326;SDS011;10822;51.532;6.770;2023-06-26T14:49:41;2.47;;;1.00;;
21326;SDS011;10822;51.532;6.770;2023-06-26T14:52:07;2.78;;;1.08;;